Time;durP1;ratioP1;P1;durP2;ratioP2;P2;SDS_P1;SDS_P2;PMS_P1;PMS_P2;Temp;Humidity;BMP_temperature;BMP_pressure;BME280_temperature;BME280_humidity;BME280_pressure;Samples;Min_cycle;Max_cycle;Signal;HPM_P1;HPM_P2
2021/09/23 00:01:15;;;;;;;1.95;1.40;;;;;;;8.55;100.00;98923.04;1671483;84;21565;-73
2021/09/23 00:06:39;;;;;;;2.58;1.57;;;;;;;8.50;100.00;98927.83;1679984;83;20971;-73
2021/09/23 00:09:08;;;;;;;1.50;1.40;;;;;;;8.47;100.00;98926.52;1690211;82;21477;-73
2021/09/23 00:11:38;;;;;;;1.95;1.45;;;;;;;8.46;100.00;98927.40;1688993;83;20936;-72
2021/09/23 00:14:06;;;;;;;1.47;1.30;;;;;;;8.46;100.00;98927.40;1689770;83;21116;-73
2021/09/23 00:16:35;;;;;;;1.70;1.60;;;;;;;8.46;100.00;98927.40;1690724;83;21801;-73
2021/09/23 00:19:05;;;;;;;1.60;1.50;;;;;;;8.45;100.00;98924.34;1701656;82;20974;-73
2021/09/23 00:21:34;;;;;;;1.70;1.60;;;;;;;8.45;100.00;98929.59;1689302;83;21494;-73
2021/09/23 00:24:02;;;;;;;1.42;1.30;;;;;;;8.43;100.00;98928.72;1697570;82;20939;-74
2021/09/23 00:26:31;;;;;;;1.35;1.25;;;;;;;8.43;100.00;98928.72;1684682;82;21467;-73
2021/09/23 00:28:59;;;;;;;1.82;1.50;;;;;;;8.45;100.00;98928.72;1697922;81;20882;-73
2021/09/23 00:31:33;;;;;;;1.67;1.52;;;;;;;8.45;100.00;98932.22;1692701;83;21407;-75
2021/09/23 00:34:01;;;;;;;2.45;1.70;;;;;;;8.44;100.00;98927.84;1679352;83;21051;-74
2021/09/23 00:36:31;;;;;;;1.50;1.40;;;;;;;8.41;100.00;98926.97;1687356;83;21629;-73
2021/09/23 00:38:58;;;;;;;2.05;1.60;;;;;;;8.40;100.00;98925.22;1669993;84;21115;-71
2021/09/23 00:41:28;;;;;;;1.40;1.30;;;;;;;8.39;100.00;98922.16;1629761;86;20920;-73
2021/09/23 00:43:56;;;;;;;1.85;1.40;;;;;;;8.41;100.00;98925.22;1663426;84;21019;-73
2021/09/23 00:46:24;;;;;;;1.80;1.57;;;;;;;8.41;100.00;98923.91;1681043;83;21015;-73
2021/09/23 00:48:52;;;;;;;1.60;1.42;;;;;;;8.41;100.00;98926.53;1647402;84;21727;-74
2021/09/23 00:51:20;;;;;;;2.92;1.52;;;;;;;8.38;100.00;98916.45;1648833;84;21114;-73
2021/09/23 00:53:48;;;;;;;1.40;1.30;;;;;;;8.36;100.00;98918.22;1638099;84;21157;-71
2021/09/23 00:56:18;;;;;;;1.30;1.20;;;;;;;8.36;100.00;98914.27;1642375;84;22416;-70
2021/09/23 00:58:48;;;;;;;1.35;1.20;;;;;;;8.36;100.00;98914.27;1660023;83;21023;-70
2021/09/23 01:01:18;;;;;;;2.02;1.57;;;;;;;8.36;100.00;98913.83;1648449;84;21489;-71
2021/09/23 01:03:50;;;;;;;;;;;;;;;8.35;100.00;98918.66;1653240;85;21566;-71
2021/09/23 01:06:19;;;;;;;1.55;1.45;;;;;;;8.35;100.00;98915.15;1678710;83;20237;-70
2021/09/23 01:08:55;;;;;;;1.92;1.42;;;;;;;8.34;100.00;98916.03;1671231;83;21683;-72
2021/09/23 01:11:27;;;;;;;1.30;1.20;;;;;;;8.33;100.00;98915.55;1682133;83;21569;-71
2021/09/23 01:13:58;;;;;;;2.58;1.45;;;;;;;8.34;100.00;98920.84;1664181;83;21522;-71
2021/09/23 01:16:30;;;;;;;1.70;1.27;;;;;;;8.34;100.00;98914.27;1669541;83;20977;-71
2021/09/23 01:19:04;;;;;;;1.70;1.37;;;;;;;8.33;100.00;98912.52;1649771;85;20927;-71
2021/09/23 01:21:34;;;;;;;2.05;1.47;;;;;;;8.32;100.00;98913.37;1694060;81;21493;-71
2021/09/23 01:24:04;;;;;;;1.40;1.30;;;;;;;8.30;100.00;98916.88;1677943;83;20983;-71
2021/09/23 01:26:32;;;;;;;1.12;1.00;;;;;;;8.30;100.00;98914.25;1695502;81;20986;-71
2021/09/23 01:29:04;;;;;;;1.70;1.45;;;;;;;8.32;100.00;98915.12;1643367;84;21975;-71
2021/09/23 01:31:33;;;;;;;1.62;1.52;;;;;;;8.31;100.00;98914.25;1643118;85;20923;-71
2021/09/23 01:34:02;;;;;;;1.00;1.00;;;;;;;8.31;100.00;98913.38;1663114;84;20935;-70
2021/09/23 01:36:30;;;;;;;1.50;1.30;;;;;;;8.30;100.00;98919.06;1675604;83;21051;-71
2021/09/23 01:38:59;;;;;;;1.80;1.20;;;;;;;8.29;100.00;98911.18;1667404;84;21547;-70
2021/09/23 01:41:30;;;;;;;1.70;1.40;;;;;;;8.29;100.00;98916.44;1680367;83;22756;-71
2021/09/23 01:43:58;;;;;;;1.35;1.25;;;;;;;8.31;100.00;98908.98;1655961;84;21061;-69
2021/09/23 01:46:30;;;;;;;1.60;1.32;;;;;;;8.32;100.00;98912.05;1680875;83;21529;-70
2021/09/23 01:49:18;;;;;;;2.05;1.55;;;;;;;8.29;100.00;98912.50;1659476;84;21438;-73
2021/09/23 01:51:46;;;;;;;1.95;1.30;;;;;;;8.26;100.00;98916.00;1648713;84;21036;-71
2021/09/23 01:54:21;;;;;;;1.30;1.20;;;;;;;8.24;100.00;98919.51;1711748;81;22496;-71
2021/09/23 01:56:53;;;;;;;3.37;1.25;;;;;;;8.25;100.00;98918.63;1712617;81;21513;-72
2021/09/23 01:59:22;;;;;;;1.30;1.20;;;;;;;8.27;100.00;98915.56;1700441;81;21477;-72
2021/09/23 02:01:54;;;;;;;1.98;1.40;;;;;;;8.28;100.00;98917.31;1668609;83;21475;-71
2021/09/23 02:04:23;;;;;;;1.52;1.30;;;;;;;8.27;100.00;98912.94;1658636;85;21434;-70
2021/09/23 02:06:51;;;;;;;1.70;1.60;;;;;;;8.25;100.00;98915.56;1621028;85;21485;-71
2021/09/23 02:09:25;;;;;;;1.60;1.15;;;;;;;8.25;100.00;98919.95;1659040;84;21504;-71
2021/09/23 02:11:55;;;;;;;1.40;1.15;;;;;;;8.24;100.00;98920.38;1647197;84;21059;-71
2021/09/23 02:14:25;;;;;;;2.25;1.47;;;;;;;8.27;100.00;98924.76;1649567;84;20951;-71
2021/09/23 02:16:54;;;;;;;1.72;1.30;;;;;;;8.27;100.00;98925.63;1647035;84;20985;-73
2021/09/23 02:19:30;;;;;;;1.37;1.20;;;;;;;8.28;100.00;98917.31;1653756;85;21100;-72
2021/09/23 02:21:59;;;;;;;1.47;1.30;;;;;;;8.28;100.00;98922.12;1653748;85;21046;-72
2021/09/23 02:24:31;;;;;;;2.10;1.20;;;;;;;8.27;100.00;98914.25;1650471;84;21427;-72
2021/09/23 02:27:08;;;;;;;;;;;;;;;8.27;100.00;98918.19;1672211;83;21450;-72
2021/09/23 02:29:36;;;;;;;1.00;1.00;;;;;;;8.28;100.00;98910.75;1635443;86;20447;-73
2021/09/23 02:32:09;;;;;;;1.30;1.20;;;;;;;8.27;100.00;98912.94;1662063;84;21110;-73
2021/09/23 02:34:37;;;;;;;1.27;1.17;;;;;;;8.24;100.00;98911.63;1683907;83;20994;-71
2021/09/23 02:37:07;;;;;;;1.95;1.20;;;;;;;8.21;100.00;98918.63;1695126;83;20950;-70
2021/09/23 02:39:35;;;;;;;1.72;1.12;;;;;;;8.21;100.00;98917.76;1683897;83;20946;-73
2021/09/23 02:42:03;;;;;;;1.30;1.20;;;;;;;8.23;100.00;98921.26;1699065;82;21141;-72
2021/09/23 02:44:35;;;;;;;1.63;1.43;;;;;;;8.25;100.00;98919.95;1716830;81;21494;-71
2021/09/23 02:47:03;;;;;;;4.12;1.47;;;;;;;8.23;100.00;98915.12;1706038;81;20855;-67
2021/09/23 02:49:31;;;;;;;2.00;1.27;;;;;;;8.21;100.00;98916.44;1688131;83;20891;-74
2021/09/23 02:52:01;;;;;;;1.82;1.20;;;;;;;8.19;100.00;98919.07;1699526;81;21426;-73
2021/09/23 02:54:32;;;;;;;1.27;1.17;;;;;;;8.20;100.00;98918.63;1695493;83;21510;-74
2021/09/23 02:57:03;;;;;;;1.55;1.45;;;;;;;8.20;100.00;98916.88;1694075;83;21797;-75
2021/09/23 02:59:32;;;;;;;2.25;1.67;;;;;;;8.19;100.00;98919.52;1693310;83;21481;-75
2021/09/23 03:02:01;;;;;;;1.80;1.70;;;;;;;8.17;100.00;98916.88;1705058;81;21401;-75
2021/09/23 03:04:30;;;;;;;1.60;1.50;;;;;;;8.16;100.00;98920.83;1682177;82;20954;-74
2021/09/23 03:06:59;;;;;;;1.35;1.25;;;;;;;8.13;100.00;98920.83;1686412;83;21426;-74
2021/09/23 03:09:32;;;;;;;1.57;1.47;;;;;;;8.14;100.00;98917.32;1667927;83;21493;-75
2021/09/23 03:12:02;;;;;;;1.62;1.50;;;;;;;8.12;100.00;98920.39;1672351;83;21594;-73
2021/09/23 03:14:33;;;;;;;2.62;1.57;;;;;;;8.08;100.00;98914.26;1651481;85;21553;-73
2021/09/23 03:17:02;;;;;;;1.75;1.60;;;;;;;8.06;100.00;98917.77;1670237;84;21443;-75
2021/09/23 03:19:31;;;;;;;1.98;1.52;;;;;;;8.04;100.00;98913.82;1676999;85;20979;-74
2021/09/23 03:22:00;;;;;;;1.80;1.60;;;;;;;8.04;100.00;98915.14;1646694;84;21471;-75
2021/09/23 03:24:28;;;;;;;2.67;1.70;;;;;;;8.04;100.00;98914.23;1660326;86;21491;-68
2021/09/23 03:26:59;;;;;;;1.85;1.70;;;;;;;8.02;100.00;98910.72;1670636;83;21181;-72
2021/09/23 03:29:28;;;;;;;2.17;1.52;;;;;;;8.02;100.00;98912.03;1675041;83;20988;-72
2021/09/23 03:31:58;;;;;;;2.25;1.67;;;;;;;8.01;100.00;98914.23;1651348;83;20954;-72
2021/09/23 03:34:27;;;;;;;2.62;1.62;;;;;;;8.01;100.00;98911.16;1676785;83;20931;-69
2021/09/23 03:36:55;;;;;;;1.98;1.77;;;;;;;8.02;100.00;98916.85;1663767;83;20942;-72
2021/09/23 03:39:23;;;;;;;1.67;1.57;;;;;;;8.03;100.00;98914.66;1670167;83;20984;-71
2021/09/23 03:41:51;;;;;;;1.95;1.75;;;;;;;8.02;100.00;98911.59;1679297;83;20969;-72
2021/09/23 03:44:29;;;;;;;2.98;1.60;;;;;;;8.01;100.00;98910.28;1665706;85;21682;-71
2021/09/23 03:47:05;;;;;;;2.83;1.62;;;;;;;8.02;100.00;98918.16;1655117;84;21438;-71
2021/09/23 03:49:37;;;;;;;2.42;1.67;;;;;;;8.04;100.00;98915.14;1621846;86;21508;-71
2021/09/23 03:52:08;;;;;;;;;;;;;;;8.07;100.00;98919.08;1678297;83;20899;-70
2021/09/23 03:54:51;;;;;;;2.70;1.47;;;;;;;8.10;100.00;98916.89;1682053;83;20432;-69
2021/09/23 03:57:27;;;;;;;1.70;1.50;;;;;;;8.09;100.00;98915.13;1713850;81;21458;-70
2021/09/23 03:59:56;;;;;;;1.75;1.65;;;;;;;8.10;100.00;98920.83;1711680;83;21107;-69
2021/09/23 04:02:29;;;;;;;1.65;1.55;;;;;;;8.11;100.00;98907.69;1698072;81;20930;-70
2021/09/23 04:05:05;;;;;;;2.00;1.37;;;;;;;8.16;100.00;98906.38;1711025;81;21483;-69
2021/09/23 04:07:37;;;;;;;4.12;1.52;;;;;;;8.17;100.00;98911.63;1721699;81;21474;-69
2021/09/23 04:10:12;;;;;;;3.67;2.20;;;;;;;8.17;100.00;98908.12;1687693;83;21429;-69
2021/09/23 04:12:43;;;;;;;2.72;2.00;;;;;;;8.16;100.00;98915.13;1725557;81;21466;-69
2021/09/23 04:15:15;;;;;;;1.95;1.60;;;;;;;8.17;100.00;98907.69;1724390;80;20962;-69
2021/09/23 04:17:46;;;;;;;5.30;4.70;;;;;;;8.21;100.00;98913.81;1684721;83;21570;-69
2021/09/23 04:20:16;;;;;;;4.67;4.28;;;;;;;8.22;100.00;98916.88;1689380;83;20977;-70
2021/09/23 04:22:58;;;;;;;2.58;2.37;;;;;;;8.23;100.00;98916.44;1688314;83;20928;-70
2021/09/23 04:25:28;;;;;;;1.87;1.77;;;;;;;8.21;100.00;98912.06;1678546;83;21489;-69
2021/09/23 04:28:02;;;;;;;1.60;1.50;;;;;;;8.21;100.00;98917.76;1676422;84;21534;-69
2021/09/23 04:30:40;;;;;;;1.95;1.75;;;;;;;8.23;100.00;98914.69;1673214;83;21433;-66
2021/09/23 04:33:10;;;;;;;1.52;1.42;;;;;;;8.26;100.00;98918.63;1687373;83;21557;-66
2021/09/23 04:35:49;;;;;;;1.52;1.40;;;;;;;8.25;100.00;98920.82;1667187;83;20906;-66
2021/09/23 04:38:17;;;;;;;2.00;1.80;;;;;;;8.26;100.00;98916.00;1668167;84;21172;-66
2021/09/23 04:40:44;;;;;;;2.10;1.90;;;;;;;8.27;100.00;98919.50;1684029;83;21445;-66
2021/09/23 04:43:13;;;;;;;3.05;1.85;;;;;;;8.28;100.00;98920.81;1686746;83;21146;-66
2021/09/23 04:45:50;;;;;;;1.60;1.50;;;;;;;8.29;100.00;98921.25;1686250;83;21569;-65
2021/09/23 04:48:21;;;;;;;3.83;2.12;;;;;;;8.34;100.00;98930.05;1673112;84;20975;-66
2021/09/23 04:50:57;;;;;;;1.95;1.60;;;;;;;8.35;100.00;98923.03;1719087;81;21425;-66
2021/09/23 04:53:29;;;;;;;1.72;1.62;;;;;;;8.36;100.00;98927.41;1719974;81;21526;-66
2021/09/23 04:56:10;;;;;;;2.60;2.20;;;;;;;8.36;100.00;98926.09;1722786;81;21966;-68
2021/09/23 04:58:38;;;;;;;3.20;2.50;;;;;;;8.36;100.00;98932.67;1699030;81;21056;-69
2021/09/23 05:01:10;;;;;;;2.37;1.82;;;;;;;8.37;100.00;98935.73;1724518;81;21425;-68
2021/09/23 05:03:42;;;;;;;2.27;1.50;;;;;;;8.41;100.00;98934.86;1723630;81;21904;-68
2021/09/23 05:06:13;;;;;;;2.45;1.85;;;;;;;8.41;100.00;98941.42;1689999;83;20894;-68
2021/09/23 05:08:45;;;;;;;1.50;1.40;;;;;;;8.41;100.00;98933.54;1710088;80;21060;-67
2021/09/23 05:14:17;;;;;;;1.60;1.50;;;;;;;8.37;100.00;98941.87;1716391;81;21517;-70
2021/09/23 05:16:43;;;;;;;1.85;1.70;;;;;;;8.39;100.00;98939.23;1686868;83;21457;-68
2021/09/23 05:19:15;;;;;;;3.05;1.45;;;;;;;8.41;100.00;98940.98;1726099;81;21655;-69
2021/09/23 05:21:43;;;;;;;2.10;1.55;;;;;;;8.42;100.00;98937.92;1681608;83;21017;-67
2021/09/23 05:24:13;;;;;;;2.10;1.80;;;;;;;8.42;100.00;98943.17;1689260;83;21464;-67
2021/09/23 05:26:43;;;;;;;3.58;1.72;;;;;;;8.41;100.00;98932.23;1677079;83;20942;-68
2021/09/23 05:29:11;;;;;;;2.12;1.90;;;;;;;8.44;100.00;98941.42;1694361;83;21089;-67
2021/09/23 05:31:40;;;;;;;2.98;1.90;;;;;;;8.49;100.00;98934.41;1686825;83;20974;-68
2021/09/23 05:34:09;;;;;;;2.00;1.90;;;;;;;8.51;100.00;98932.65;1675649;83;20898;-67
2021/09/23 05:36:37;;;;;;;5.83;4.12;;;;;;;8.53;100.00;98934.00;1686599;83;20898;-67
2021/09/23 05:39:05;;;;;;;8.78;4.28;;;;;;;8.55;100.00;98937.50;1689466;83;20981;-68
2021/09/23 05:41:41;;;;;;;3.17;2.30;;;;;;;8.56;100.00;98941.44;1685617;83;21091;-68
2021/09/23 05:44:09;;;;;;;3.95;3.10;;;;;;;8.57;100.00;98944.95;1686547;83;21437;-67
2021/09/23 05:46:42;;;;;;;4.12;2.45;;;;;;;8.61;100.00;98944.06;1683962;83;20878;-67
2021/09/23 05:49:16;;;;;;;2.33;2.10;;;;;;;8.64;100.00;98945.37;1693168;83;21509;-67
2021/09/23 05:51:51;;;;;;;1.50;1.40;;;;;;;8.66;100.00;98943.61;1676508;83;21438;-69
2021/09/23 05:54:20;;;;;;;2.00;1.50;;;;;;;8.67;100.00;98949.31;1688155;83;21945;-69
2021/09/23 05:56:49;;;;;;;1.67;1.05;;;;;;;8.70;100.00;98950.62;1682528;83;21411;-69
2021/09/23 05:59:19;;;;;;;2.92;1.90;;;;;;;8.72;100.00;98956.31;1682350;83;21494;-68
2021/09/23 06:01:49;;;;;;;4.40;3.22;;;;;;;8.78;100.00;98958.05;1693314;83;20963;-69
2021/09/23 06:04:22;;;;;;;4.62;2.33;;;;;;;8.81;100.00;98962.86;1689741;83;21441;-67
2021/09/23 06:06:49;;;;;;;3.02;2.37;;;;;;;8.82;100.00;98958.48;1662172;84;24938;-68
2021/09/23 06:09:18;;;;;;;1.95;1.60;;;;;;;8.81;100.00;98960.67;1683133;83;21497;-69
2021/09/23 06:11:49;;;;;;;1.62;1.27;;;;;;;8.79;100.00;98954.54;1687887;83;21002;-67
2021/09/23 06:14:20;;;;;;;1.50;1.40;;;;;;;8.81;100.00;98957.61;1680478;83;20904;-67
2021/09/23 06:16:51;;;;;;;2.60;1.05;;;;;;;8.84;100.00;98953.65;1680197;83;21409;-68
2021/09/23 06:19:19;;;;;;;1.85;1.30;;;;;;;8.88;100.00;98962.41;1680298;83;21778;-68
2021/09/23 06:21:49;;;;;;;2.37;1.50;;;;;;;8.91;100.00;98966.79;1680204;83;21437;-68
2021/09/23 06:24:18;;;;;;;3.02;1.37;;;;;;;8.93;100.00;98965.03;1693687;83;21024;-68
2021/09/23 06:26:51;;;;;;;1.52;1.30;;;;;;;8.95;100.00;98971.16;1678789;83;20915;-69
2021/09/23 06:29:19;;;;;;;1.62;1.40;;;;;;;8.95;100.00;98965.45;1682532;83;20959;-68
2021/09/23 06:31:49;;;;;;;1.98;1.30;;;;;;;9.01;100.00;98968.55;1688792;83;21077;-68
2021/09/23 06:34:18;;;;;;;1.55;1.30;;;;;;;9.04;100.00;98969.85;1681021;83;21474;-68
2021/09/23 06:36:46;;;;;;;3.42;2.05;;;;;;;9.06;100.00;98960.20;1689346;83;21427;-67
2021/09/23 06:39:16;;;;;;;1.85;1.47;;;;;;;9.07;100.00;98965.45;1682538;83;21029;-67
2021/09/23 06:41:45;;;;;;;1.67;1.40;;;;;;;9.06;100.00;98961.08;1677202;83;21466;-67
2021/09/23 06:44:13;;;;;;;1.92;1.52;;;;;;;9.07;100.00;98965.45;1725009;81;21513;-67
2021/09/23 06:46:41;;;;;;;1.87;1.65;;;;;;;9.11;100.00;98967.20;1725755;81;20903;-67
2021/09/23 06:49:10;;;;;;;4.50;1.80;;;;;;;9.12;100.00;98965.00;1680757;83;20903;-67
2021/09/23 06:51:42;;;;;;;2.10;1.60;;;;;;;9.12;100.00;98968.95;1693539;83;20903;-68
2021/09/23 06:54:10;;;;;;;2.25;1.20;;;;;;;9.13;100.00;98967.19;1694222;83;21561;-70
2021/09/23 06:56:42;;;;;;;1.60;1.25;;;;;;;9.08;100.00;98967.20;1694910;83;21375;-70
2021/09/23 06:59:15;;;;;;;1.80;1.00;;;;;;;9.07;100.00;98972.47;1689333;83;20934;-70
2021/09/23 07:01:45;;;;;;;1.40;0.90;;;;;;;9.05;100.00;98975.11;1687409;83;21450;-69
2021/09/23 07:04:24;;;;;;;7.08;4.65;;;;;;;9.07;100.00;98972.47;1686983;84;20931;-70
2021/09/23 07:07:09;;;;;;;3.87;2.27;;;;;;;9.06;100.00;98978.62;1586346;89;21670;-69
2021/09/23 07:09:44;;;;;;;;;;;;;;;9.00;100.00;98974.69;1660589;84;20863;-69
2021/09/23 07:12:16;;;;;;;1.60;1.40;;;;;;;8.99;100.00;98971.19;1659595;84;20455;-69
2021/09/23 07:14:44;;;;;;;2.12;1.27;;;;;;;8.98;100.00;98976.41;1683365;83;22086;-69
2021/09/23 07:17:13;;;;;;;1.10;0.95;;;;;;;8.98;100.00;98976.41;1661560;83;21557;-70
2021/09/23 07:19:47;;;;;;;1.82;1.00;;;;;;;9.04;100.00;98977.31;1661702;83;20911;-68
2021/09/23 07:22:17;;;;;;;1.77;1.17;;;;;;;9.06;100.00;98976.86;1664229;83;20890;-69
2021/09/23 07:24:47;;;;;;;1.70;1.22;;;;;;;9.08;100.00;98980.36;1690046;83;20890;-69
2021/09/23 07:27:15;;;;;;;3.77;1.45;;;;;;;9.09;100.00;98976.85;1686455;83;21153;-69
2021/09/23 07:29:46;;;;;;;2.10;1.50;;;;;;;9.09;100.00;98977.29;1690741;83;21600;-70
2021/09/23 07:32:15;;;;;;;2.77;1.50;;;;;;;9.08;100.00;98973.78;1679779;84;21490;-69
2021/09/23 07:34:45;;;;;;;4.70;1.90;;;;;;;9.12;100.00;98975.97;1723551;81;21094;-70
2021/09/23 07:37:13;;;;;;;2.12;1.70;;;;;;;9.17;100.00;98978.14;1689893;83;20891;-71
2021/09/23 07:39:46;;;;;;;4.30;1.70;;;;;;;9.17;100.00;98975.51;1724049;81;21446;-70
2021/09/23 07:42:16;;;;;;;1.70;1.60;;;;;;;9.18;100.00;98979.02;1687655;83;20951;-69
2021/09/23 07:44:52;;;;;;;2.15;1.40;;;;;;;9.17;100.00;98985.16;1686656;83;21474;-70
2021/09/23 07:47:24;;;;;;;1.12;1.02;;;;;;;9.15;100.00;98986.48;1666714;83;21439;-70
2021/09/23 07:49:55;;;;;;;1.12;1.02;;;;;;;9.15;100.00;98982.53;1724059;81;20974;-69
2021/09/23 07:52:24;;;;;;;1.22;1.12;;;;;;;9.16;100.00;98979.02;1720426;80;21018;-69
2021/09/23 07:54:55;;;;;;;1.67;1.30;;;;;;;9.15;100.00;98983.85;1689723;83;21457;-69
2021/09/23 07:57:27;;;;;;;2.58;1.80;;;;;;;9.11;100.00;98980.35;1682597;83;20887;-70
2021/09/23 07:59:55;;;;;;;2.72;2.05;;;;;;;9.10;100.00;98977.28;1682487;83;21087;-70
2021/09/23 08:02:25;;;;;;;1.95;1.77;;;;;;;9.11;100.00;98987.37;1695750;83;21588;-70
2021/09/23 08:04:57;;;;;;;2.25;1.90;;;;;;;9.13;100.00;98979.91;1724115;81;21026;-69
2021/09/23 08:07:28;;;;;;;3.00;1.60;;;;;;;9.21;100.00;98984.27;1716169;81;21430;-68
2021/09/23 08:10:00;;;;;;;1.82;1.60;;;;;;;9.26;100.00;98985.13;1681899;83;21497;-69
2021/09/23 08:12:28;;;;;;;1.77;1.37;;;;;;;9.29;100.00;98985.12;1663227;84;23062;-70
2021/09/23 08:14:59;;;;;;;1.50;1.40;;;;;;;9.30;100.00;98983.80;1683808;83;21473;-70
2021/09/23 08:17:45;;;;;;;1.80;1.32;;;;;;;9.30;100.00;98988.19;1668186;83;20911;-70
2021/09/23 08:20:13;;;;;;;1.47;1.37;;;;;;;9.27;100.00;98982.49;1686179;83;21458;-68
2021/09/23 08:22:45;;;;;;;1.80;1.52;;;;;;;9.27;100.00;98989.07;1688209;83;21017;-70
2021/09/23 08:25:15;;;;;;;1.82;1.60;;;;;;;9.28;100.00;98982.05;1688987;83;21177;-70
2021/09/23 08:27:44;;;;;;;1.40;1.30;;;;;;;9.28;100.00;98978.98;1689611;83;21450;-70
2021/09/23 08:30:14;;;;;;;1.70;1.60;;;;;;;9.30;100.00;98974.58;1692878;83;21014;-69
2021/09/23 08:32:48;;;;;;;2.15;1.57;;;;;;;9.34;100.00;98977.64;1684127;83;20923;-69
2021/09/23 08:35:17;;;;;;;2.62;2.27;;;;;;;9.38;100.00;98974.55;1694660;83;21474;-69
2021/09/23 08:37:45;;;;;;;1.90;1.50;;;;;;;9.40;100.00;98973.66;1682054;83;21709;-69
2021/09/23 08:40:14;;;;;;;2.60;2.10;;;;;;;9.44;100.00;98971.45;1690379;83;21485;-69
2021/09/23 08:42:44;;;;;;;2.08;1.80;;;;;;;9.48;100.00;98964.89;1687510;83;21682;-70
2021/09/23 08:45:14;;;;;;;2.10;1.82;;;;;;;9.51;100.00;98967.06;1692207;83;21009;-70
2021/09/23 08:47:46;;;;;;;2.00;1.80;;;;;;;9.54;100.00;98967.05;1681885;83;20971;-70
2021/09/23 08:50:17;;;;;;;2.58;2.22;;;;;;;9.57;100.00;98972.30;1695208;83;21337;-70
2021/09/23 08:52:50;;;;;;;2.02;1.55;;;;;;;9.60;100.00;98972.72;1716500;80;20994;-67
2021/09/23 08:55:26;;;;;;;2.00;1.50;;;;;;;9.62;100.00;98972.27;1708435;80;20935;-68
2021/09/23 08:57:58;;;;;;;2.35;2.15;;;;;;;9.67;100.00;98977.08;1723427;81;20891;-68
2021/09/23 09:00:26;;;;;;;2.60;1.90;;;;;;;9.71;100.00;98977.49;1725039;81;20964;-68
2021/09/23 09:03:08;;;;;;;2.37;2.10;;;;;;;9.71;100.00;98973.09;1693748;83;21716;-68
2021/09/23 09:05:50;;;;;;;2.92;2.22;;;;;;;9.69;100.00;98970.04;1717173;81;20990;-67
2021/09/23 09:08:37;;;;;;;2.37;2.17;;;;;;;9.65;100.00;98968.31;1722633;81;20934;-68
2021/09/23 09:11:11;;;;;;;2.70;2.33;;;;;;;9.62;100.00;98968.33;1678747;83;21434;-68
2021/09/23 09:13:47;;;;;;;3.17;2.62;;;;;;;9.58;100.00;98969.22;1696836;83;21460;-68
2021/09/23 09:16:19;;;;;;;2.62;2.40;;;;;;;9.58;100.00;98965.27;1690519;82;21153;-67
2021/09/23 09:18:55;;;;;;;3.72;2.50;;;;;;;9.60;100.00;98970.09;1671725;84;21422;-68
2021/09/23 09:21:26;;;;;;;6.22;2.75;;;;;;;9.59;100.00;98965.27;1693981;83;21407;-69
2021/09/23 09:24:01;;;;;;;2.70;2.50;;;;;;;9.58;100.00;98964.83;1685803;83;21567;-69
2021/09/23 09:26:36;;;;;;;3.00;2.70;;;;;;;9.59;100.00;98965.70;1675041;84;20935;-69
2021/09/23 09:29:05;;;;;;;3.27;2.40;;;;;;;9.58;100.00;98963.52;1684324;83;21051;-69
2021/09/23 09:31:39;;;;;;;3.55;1.80;;;;;;;9.57;100.00;98964.84;1682244;83;20995;-69
2021/09/23 09:34:08;;;;;;;2.52;2.10;;;;;;;9.58;100.00;98966.59;1688851;83;20952;-71
2021/09/23 09:36:39;;;;;;;2.10;1.90;;;;;;;9.59;100.00;98970.97;1663279;83;21477;-71
2021/09/23 09:39:14;;;;;;;4.83;2.90;;;;;;;9.58;100.00;98967.47;1723537;81;20902;-70
2021/09/23 09:41:46;;;;;;;4.65;2.58;;;;;;;9.59;100.00;98973.61;1723379;81;21465;-70
2021/09/23 09:44:16;;;;;;;2.37;2.05;;;;;;;9.59;100.00;98975.80;1724433;81;20914;-70
2021/09/23 09:46:53;;;;;;;3.45;1.90;;;;;;;9.61;100.00;98979.30;1684158;83;21545;-70
2021/09/23 09:49:24;;;;;;;2.72;2.00;;;;;;;9.66;100.00;98981.47;1676987;83;21536;-70
2021/09/23 09:51:59;;;;;;;2.80;2.30;;;;;;;9.66;100.00;98986.73;1676129;83;20943;-70
2021/09/23 09:54:27;;;;;;;2.58;2.30;;;;;;;9.66;100.00;98992.00;1678522;83;21086;-71
2021/09/23 09:57:01;;;;;;;2.62;2.42;;;;;;;9.64;100.00;98989.81;1727379;81;21482;-69
2021/09/23 09:59:32;;;;;;;2.70;2.40;;;;;;;9.62;100.00;98987.63;1727470;81;20969;-70
2021/09/23 10:02:04;;;;;;;2.70;2.30;;;;;;;9.64;100.00;98990.27;1683407;83;20958;-70
2021/09/23 10:04:32;;;;;;;2.52;2.02;;;;;;;9.70;100.00;98992.86;1683642;83;21018;-70
2021/09/23 10:07:02;;;;;;;2.50;2.30;;;;;;;9.72;100.00;98989.33;1692532;83;21104;-69
2021/09/23 10:09:38;;;;;;;2.65;2.30;;;;;;;9.76;100.00;98989.75;1689840;83;21529;-69
2021/09/23 10:12:07;;;;;;;2.30;2.10;;;;;;;9.80;100.00;98987.97;1688358;83;20943;-70
2021/09/23 10:14:35;;;;;;;4.70;2.05;;;;;;;9.83;100.00;98987.08;1672162;83;20935;-69
2021/09/23 10:17:06;;;;;;;2.47;2.08;;;;;;;9.87;100.00;98987.05;1650500;84;21434;-69
2021/09/23 10:19:38;;;;;;;1.77;1.67;;;;;;;9.94;100.00;98982.66;1727160;81;21049;-70
2021/09/23 10:22:07;;;;;;;3.08;1.80;;;;;;;10.00;100.00;98986.56;1688430;83;20854;-70
2021/09/23 10:24:38;;;;;;;1.87;1.75;;;;;;;10.07;100.00;98989.59;1691729;83;21010;-70
2021/09/23 10:29:59;;;;;;;2.12;1.80;;;;;;;10.13;100.00;98984.72;1684617;83;20998;-70
2021/09/23 10:32:28;;;;;;;2.62;1.70;;;;;;;10.17;100.00;98986.45;1725561;81;21697;-70
2021/09/23 10:34:55;;;;;;;3.25;1.80;;;;;;;10.21;100.00;98983.81;1675066;83;21029;-70
2021/09/23 10:37:26;;;;;;;1.70;1.57;;;;;;;10.26;100.00;98979.37;1721358;81;20946;-70
2021/09/23 10:39:55;;;;;;;2.25;2.00;;;;;;;10.29;100.00;98978.48;1675381;83;20926;-70
2021/09/23 10:42:24;;;;;;;2.45;1.60;;;;;;;10.28;100.00;98978.92;1679007;83;21013;-68
2021/09/23 10:44:56;;;;;;;1.45;1.35;;;;;;;10.27;100.00;98975.86;1682450;83;21436;-68
2021/09/23 10:47:34;;;;;;;1.62;1.27;;;;;;;10.24;100.00;98975.01;1683318;83;20973;-68
2021/09/23 10:50:06;;;;;;;3.08;1.40;;;;;;;10.23;100.00;98970.63;1691315;83;20927;-69
2021/09/23 10:52:38;;;;;;;1.65;1.30;;;;;;;10.23;100.00;98973.26;1679355;83;21407;-68
2021/09/23 10:55:08;;;;;;;1.37;1.27;;;;;;;10.23;100.00;98969.30;1664326;83;21015;-68
2021/09/23 10:57:36;;;;;;;0.95;0.95;;;;;;;10.24;100.00;98965.78;1688854;83;21051;-68
2021/09/23 11:00:10;;;;;;;2.65;1.30;;;;;;;10.24;100.00;98970.61;1665671;84;21466;-67
2021/09/23 11:02:40;;;;;;;1.75;1.32;;;;;;;10.26;100.00;98967.96;1730477;81;21402;-67
2021/09/23 11:05:12;;;;;;;1.92;1.32;;;;;;;10.30;100.00;98965.73;1665131;83;21154;-66
2021/09/23 11:07:42;;;;;;;;;;;;;;;10.34;100.00;98966.14;1689722;83;21445;-68
2021/09/23 11:10:18;;;;;;;2.20;1.60;;;;;;;10.42;100.00;98955.56;1699435;83;21106;-68
2021/09/23 11:12:53;;;;;;;1.50;1.20;;;;;;;10.50;100.00;98965.16;1681780;83;21540;-67
2021/09/23 11:15:24;;;;;;;;;;;;;;;10.60;100.00;98961.54;1675377;83;20975;-68
2021/09/23 11:17:54;;;;;;;1.22;1.07;;;;;;;10.71;100.00;98964.95;1695640;83;20085;-68
2021/09/23 11:20:30;;;;;;;1.22;1.12;;;;;;;10.78;100.00;98967.08;1691227;83;20939;-68
2021/09/23 11:23:08;;;;;;;1.40;1.10;;;;;;;10.81;100.00;98964.86;1682754;83;21646;-68
2021/09/23 11:25:48;;;;;;;1.40;1.30;;;;;;;10.82;100.00;98960.01;1687933;83;21433;-69
2021/09/23 11:28:15;;;;;;;2.80;1.27;;;;;;;10.84;100.00;98962.19;1687141;83;20974;-68
2021/09/23 11:30:45;;;;;;;2.20;1.50;;;;;;;10.86;100.00;98953.81;1687613;83;20907;-69
2021/09/23 11:33:23;;;;;;;1.62;1.20;;;;;;;10.89;100.00;98957.77;1685174;84;20863;-68
2021/09/23 11:35:53;;;;;;;1.40;1.10;;;;;;;10.92;100.00;98954.66;1671100;84;21845;-68
2021/09/23 11:38:25;;;;;;;1.10;1.00;;;;;;;10.96;100.00;98951.09;1693755;83;21034;-67
2021/09/23 11:41:01;;;;;;;0.90;0.90;;;;;;;11.00;100.00;98949.29;1662463;85;21007;-68
2021/09/23 11:43:30;;;;;;;3.75;1.37;;;;;;;11.09;100.00;98944.35;1680986;83;21628;-68
2021/09/23 11:46:13;;;;;;;1.87;1.45;;;;;;;11.16;100.00;98946.91;1685604;83;21053;-66
2021/09/23 11:48:41;;;;;;;1.30;1.20;;;;;;;11.22;100.00;98947.27;1687758;83;21409;-67
2021/09/23 11:51:15;;;;;;;1.40;1.20;;;;;;;11.24;100.00;98950.77;1675232;83;21679;-66
2021/09/23 11:53:54;;;;;;;1.70;1.30;;;;;;;11.22;100.00;98940.67;1685025;82;21399;-67
2021/09/23 11:56:25;;;;;;;1.57;1.20;;;;;;;11.20;100.00;98944.66;1688285;83;20951;-67
2021/09/23 11:58:56;;;;;;;1.30;1.12;;;;;;;11.19;100.00;98944.67;1727727;81;21120;-67
2021/09/23 12:01:27;;;;;;;1.87;1.32;;;;;;;11.14;100.00;98943.85;1695193;83;21729;-68